罗盘
风向 的 风向 的 风向 到 风向 280° Aero Club Salland 9/27
风: 7 kt, 3 beaufort

6 kt

1 kt
改变
0 1.000 2.000 3.000 4.000 5.000
没有观察到明显的云
METAR EHLE 180855Z AUTO 28007KT 240V330 9999 NSC 22/16 Q1020 NOSIG

METAR Aero Club Salland

Aero Club Salland是Lemelerveld,荷兰中的小机场。 该机场有一条跑道: 9/27.

这份报告是针对2022年5月18日 10:55, 当地时间在Lelystad Airport进行的。

机场观察

风向为280°,速度为7 kt。 风向在240°和330°之间变化。

可见度为10 km 或者更多。

有没有观察到明显的云。 没有观察到天花板。

温度和风寒是22 °C。 露点为16 °C,相对湿度为69%。 海平面上的气压为1020 hPa (QNH)。

白天

今天,太阳从05:33升起,在21:28降落。 这适用于Aero Club Salland,世界夏令时可能有所不同。 当地时间与世界标准时间之间的时差为+2 小时。 夏令时目前正在进行中。

公司介绍

在这个机场,你可以找到滑翔机飞行俱乐部。 本场上唯一已知的公司是Vliegles.nl。

体会

在这个机场有飞行课程。 你可以在没有任何经验的情况下预订飞行课程。 在Aero Club Salland预订最多的飞行课程类型是Glider flying day course Salland。 这些课程的价格从€ 149开始。 在这里阅读更多关于Glider flying day course Salland的信息。你也可以在这个网站上进行预订。

您会帮助我们保持Metar-Taf.com正常运行吗?
您的贡献有助于网站的进一步开发并支付费用。

没有更多广告

您是捐款5美元还是更多?然后,我们将永远不会再向您展示广告,这是我们永恒的感谢!
捐赠前先登录

跑道

Id 标题 侧风 逆风
9/27 090°-270° 1 kt 6 kt

逆风成分最大的方向会被突出显示,并用于横风计算。 这并不一定意味着这个方向在使用。

乌云

- NSC 没有观察到明显的云

温度 & 天气

温度 22 °C
露点 16 °C
相对湿度 69%
Kp-index 0  

公司介绍

新增公司

下载我们的应用程序

在您的手机和平板电脑上轻松访问所有航空天气。
有许多网站上没有的功能,如离线支持和个人机场列表。

Studio Eveline

Benalmádena
España